Main page
METAR-TAF:

METAR-TAF

Airports :

Celle Air Base

Celle, Germany

latitude: 52-36N, longitude: 010-01E, elevation: 39 m

Current weather observation

The report was made 21 minutes ago, at 01:20 UTC
Wind 4 kt from the North/Northeast
Temperature 16°C
Humidity 82%
Pressure 1018 hPa
Visibility 10 km or more

METAR: ETHC 250120Z 03004KT 9999 16/13 Q1018 BLU+

Time: 03:41 (01:41 UTC)

Forecast

The report was made 12 hours and 30 minutes ago, at 13:11 UTC
Forecast valid from 24 at 14 UTC to 24 at 23 UTC
Wind 5 kt from the Northeast
Visibility 10 km or more
Scattered clouds at a height of 5500 ft

TAF: ETHC 241311Z 2414/2423 04005KT 9999 NSW SCT055

Weather observations and forecasts of more than 4000 airports (METAR and TAF reports).

The available stations are represented by yellow and red dots on the map.

Hover mouse over dot to see the name of the station.

Then click to see weather observations and forecasts.

To change the map : click on the green buttons with a black cross to zoom in, on the green button with a dash to zoom out, or on the green arrows for adjacent maps.


METAR-TAF: